Time;durP1;ratioP1;P1;durP2;ratioP2;P2;SDS_P1;SDS_P2;PMS_P1;PMS_P2;Temp;Humidity;BMP_temperature;BMP_pressure;BME280_temperature;BME280_humidity;BME280_pressure;Samples;Min_cycle;Max_cycle;Signal;HPM_P1;HPM_P2
2022/03/19 00:00:34;;;;;;;64.88;34.22;;;;;;;2.92;85.72;99527.13;5031284;28;20053;-65
2022/03/19 00:03:02;;;;;;;67.20;35.80;;;;;;;2.95;85.87;99524.97;5027877;28;20069;-66
2022/03/19 00:05:28;;;;;;;76.80;37.28;;;;;;;2.97;85.34;99525.69;5027769;28;20042;-65
2022/03/19 00:07:55;;;;;;;68.15;35.28;;;;;;;3.00;84.97;99532.56;5028152;28;20107;-65
2022/03/19 00:10:22;;;;;;;72.50;37.40;;;;;;;2.97;85.46;99524.84;5028567;28;20049;-65
2022/03/19 00:12:49;;;;;;;70.40;37.22;;;;;;;3.01;85.10;99522.69;5027249;28;20041;-64
2022/03/19 00:15:16;;;;;;;69.88;36.53;;;;;;;2.97;84.93;99532.88;5033421;28;20056;-63
2022/03/19 00:17:43;;;;;;;71.80;37.63;;;;;;;3.03;85.24;99523.41;5034200;28;20060;-63
2022/03/19 00:20:11;;;;;;;64.78;35.85;;;;;;;3.01;84.81;99517.34;5008212;28;20057;-63
2022/03/19 00:22:38;;;;;;;71.55;42.42;;;;;;;3.01;84.61;99520.00;5025005;28;20037;-64
2022/03/19 00:25:05;;;;;;;64.53;36.35;;;;;;;2.98;84.93;99515.81;5028669;28;20103;-65
2022/03/19 00:27:32;;;;;;;69.68;35.50;;;;;;;2.95;84.73;99508.91;5027215;28;20053;-64
2022/03/19 00:29:59;;;;;;;67.55;36.17;;;;;;;2.92;85.15;99522.63;5027651;28;20513;-65
2022/03/19 00:32:26;;;;;;;72.53;37.75;;;;;;;2.91;85.01;99510.22;5027437;28;20069;-64
2022/03/19 00:34:52;;;;;;;71.82;35.40;;;;;;;2.95;84.84;99511.59;5026817;28;20270;-65
2022/03/19 00:37:19;;;;;;;72.65;39.90;;;;;;;2.98;84.35;99511.31;5027853;28;20041;-64
2022/03/19 00:39:46;;;;;;;75.55;40.40;;;;;;;3.03;84.18;99510.03;5027865;28;20456;-64
2022/03/19 00:42:13;;;;;;;72.03;36.55;;;;;;;3.03;84.05;99508.19;5031018;28;20049;-65
2022/03/19 00:44:39;;;;;;;64.85;35.70;;;;;;;3.06;83.84;99510.53;5029634;28;20049;-64
2022/03/19 00:47:06;;;;;;;65.32;35.85;;;;;;;3.02;83.83;99503.81;5034178;28;20088;-64
2022/03/19 00:49:32;;;;;;;62.97;34.88;;;;;;;3.04;84.22;99514.38;5027355;28;20473;-66
2022/03/19 00:51:59;;;;;;;64.32;35.15;;;;;;;3.01;83.81;99515.53;5042219;28;20041;-64
2022/03/19 00:54:26;;;;;;;65.20;33.50;;;;;;;3.01;83.76;99507.50;5027558;28;20099;-64
2022/03/19 00:56:52;;;;;;;65.43;34.60;;;;;;;2.96;83.94;99505.28;5027360;28;20033;-64
2022/03/19 00:59:19;;;;;;;69.00;35.92;;;;;;;2.98;83.71;99502.44;5025697;28;20049;-64
2022/03/19 01:01:46;;;;;;;71.22;37.03;;;;;;;2.96;83.91;99501.75;5027424;28;20096;-63
2022/03/19 01:04:13;;;;;;;65.53;34.60;;;;;;;2.91;83.90;99504.84;5026396;28;20049;-65
2022/03/19 01:06:40;;;;;;;65.75;34.13;;;;;;;2.86;83.92;99504.47;5031582;28;20041;-65
2022/03/19 01:09:06;;;;;;;65.68;34.22;;;;;;;2.83;84.34;99504.75;5029490;28;20603;-65
2022/03/19 01:11:33;;;;;;;65.75;34.72;;;;;;;2.77;84.41;99506.22;5026534;28;20053;-65
2022/03/19 01:14:00;;;;;;;63.53;35.05;;;;;;;2.79;84.41;99506.03;5026048;28;20493;-65
2022/03/19 01:16:26;;;;;;;62.25;33.25;;;;;;;2.76;84.14;99507.19;5033606;28;20045;-65
2022/03/19 01:18:53;;;;;;;59.67;33.17;;;;;;;2.76;84.12;99506.38;5026623;28;20201;-64
2022/03/19 01:21:20;;;;;;;63.03;32.38;;;;;;;2.58;84.41;99501.81;5026962;28;20044;-65
2022/03/19 01:23:46;;;;;;;62.38;31.65;;;;;;;2.44;84.68;99503.13;5026728;28;20727;-64
2022/03/19 01:26:13;;;;;;;64.78;35.40;;;;;;;2.42;85.84;99505.09;5025930;28;20087;-64
2022/03/19 01:28:40;;;;;;;64.78;33.80;;;;;;;2.35;85.68;99504.81;5026161;28;20049;-65
2022/03/19 01:31:06;;;;;;;60.20;32.22;;;;;;;2.32;85.68;99497.94;5027178;28;20501;-65
2022/03/19 01:33:33;;;;;;;66.72;34.63;;;;;;;2.30;86.25;99499.06;5029103;28;20049;-64
2022/03/19 01:36:00;;;;;;;57.80;31.65;;;;;;;2.26;86.26;99505.69;5026545;28;20060;-65
2022/03/19 01:38:27;;;;;;;67.05;34.03;;;;;;;2.28;86.14;99498.41;5025616;28;20049;-65
2022/03/19 01:40:53;;;;;;;61.25;33.50;;;;;;;2.30;85.59;99499.94;5026524;28;20041;-66
2022/03/19 01:43:20;;;;;;;60.35;32.22;;;;;;;2.30;85.99;99496.41;5025928;28;20046;-65
2022/03/19 01:45:48;;;;;;;63.15;33.80;;;;;;;2.26;85.73;99501.22;5025221;28;20468;-65
2022/03/19 01:48:14;;;;;;;66.47;34.05;;;;;;;2.20;85.65;99497.28;5025801;28;20095;-65
2022/03/19 01:50:41;;;;;;;69.97;33.92;;;;;;;2.18;85.82;99503.75;5025680;28;20045;-65
2022/03/19 01:53:07;;;;;;;63.13;33.15;;;;;;;2.19;85.78;99489.41;5025657;28;20440;-65
2022/03/19 01:55:34;;;;;;;65.05;33.17;;;;;;;2.18;86.07;99490.41;5025842;28;20057;-65
2022/03/19 01:58:02;;;;;;;65.43;32.45;;;;;;;2.12;84.97;99486.47;5026353;28;20042;-64
2022/03/19 02:00:29;;;;;;;54.88;30.38;;;;;;;2.02;85.45;99489.16;5026735;28;20419;-65
2022/03/19 02:02:56;;;;;;;56.95;31.02;;;;;;;2.00;86.32;99495.63;5022652;28;20099;-65
2022/03/19 02:05:24;;;;;;;58.40;31.50;;;;;;;2.05;86.28;99493.38;5025075;28;20110;-66
2022/03/19 02:07:52;;;;;;;68.38;33.85;;;;;;;2.06;86.26;99495.06;5021475;28;20041;-64
2022/03/19 02:10:22;;;;;;;61.00;32.40;;;;;;;2.05;85.78;99494.22;5026160;28;20056;-65
2022/03/19 02:12:50;;;;;;;61.05;35.03;;;;;;;2.05;86.13;99493.38;5023663;28;20111;-65
2022/03/19 02:15:16;;;;;;;60.88;31.67;;;;;;;2.03;85.94;99490.00;5030565;28;20037;-64
2022/03/19 02:17:43;;;;;;;63.05;32.08;;;;;;;2.13;85.73;99492.66;5036499;28;20114;-63
2022/03/19 02:20:11;;;;;;;67.88;34.38;;;;;;;2.15;85.34;99491.53;5024845;28;20462;-64
2022/03/19 02:22:37;;;;;;;59.80;32.53;;;;;;;2.10;85.41;99495.63;5031119;28;20266;-64
2022/03/19 02:27:51;;;;;;;64.55;32.55;;;;;;;2.01;85.50;99487.47;5025380;28;20048;-64
2022/03/19 02:30:17;;;;;;;59.33;31.88;;;;;;;1.99;85.28;99483.28;5024677;28;20041;-64
2022/03/19 02:32:49;;;;;;;60.88;31.48;;;;;;;1.86;84.38;99484.41;5021389;28;20061;-65
2022/03/19 02:35:17;;;;;;;;;;;;;;;1.75;85.75;99473.88;5025239;28;20670;-65
2022/03/19 02:37:46;;;;;;;53.65;28.23;;;;;;;1.64;84.99;99474.88;5024683;28;20212;-64
2022/03/19 02:40:18;;;;;;;59.08;30.35;;;;;;;1.60;87.01;99471.66;5026018;28;20095;-65
2022/03/19 02:42:53;;;;;;;61.50;32.75;;;;;;;1.64;87.00;99472.22;5022235;28;20103;-64
2022/03/19 02:45:21;;;;;;;64.07;32.58;;;;;;;1.49;85.74;99463.78;5014430;28;20057;-65
2022/03/19 02:47:57;;;;;;;65.88;34.08;;;;;;;1.51;86.06;99467.19;5019677;28;20041;-64
2022/03/19 02:50:32;;;;;;;55.25;29.85;;;;;;;1.30;85.06;99466.31;5027010;28;20045;-65
2022/03/19 02:53:01;;;;;;;60.08;32.70;;;;;;;1.25;87.22;99465.06;5022877;28;20129;-63
2022/03/19 02:55:34;;;;;;;60.75;30.23;;;;;;;1.13;85.93;99467.00;5024011;28;20128;-64
2022/03/19 02:58:02;;;;;;;59.75;31.52;;;;;;;1.10;86.77;99470.78;5027707;28;20528;-65
2022/03/19 03:00:29;;;;;;;62.80;32.40;;;;;;;1.11;87.14;99468.97;5024411;28;20042;-65
2022/03/19 03:02:56;;;;;;;59.42;32.13;;;;;;;1.05;87.38;99465.03;5023293;28;20034;-65
2022/03/19 03:05:23;;;;;;;60.72;32.03;;;;;;;0.95;85.73;99464.19;5023890;28;20048;-64
2022/03/19 03:07:50;;;;;;;60.17;31.45;;;;;;;0.57;87.41;99469.28;5023209;28;20049;-64
2022/03/19 03:10:17;;;;;;;60.72;31.10;;;;;;;0.52;88.67;99461.69;5024457;28;20045;-64
2022/03/19 03:12:44;;;;;;;57.63;31.02;;;;;;;0.43;87.51;99458.00;5022712;28;20053;-64
2022/03/19 03:15:11;;;;;;;54.15;29.30;;;;;;;0.30;87.91;99460.06;5032144;28;20055;-64
2022/03/19 03:17:38;;;;;;;53.60;29.65;;;;;;;0.16;88.55;99463.91;5022942;28;20034;-63
2022/03/19 03:20:06;;;;;;;56.80;28.33;;;;;;;0.14;89.16;99466.72;5024624;28;20041;-64
2022/03/19 03:22:33;;;;;;;58.67;28.85;;;;;;;0.14;88.91;99466.72;5024506;28;20075;-65
2022/03/19 03:25:00;;;;;;;60.35;30.75;;;;;;;0.07;89.16;99458.41;5025273;28;20041;-64
2022/03/19 03:27:26;;;;;;;63.70;31.70;;;;;;;0.04;89.72;99468.50;5027855;28;20420;-64
2022/03/19 03:29:53;;;;;;;57.85;30.42;;;;;;;0.11;89.10;99467.00;5027833;28;20030;-64
2022/03/19 03:32:20;;;;;;;58.88;29.50;;;;;;;0.11;89.19;99464.34;5027309;28;20041;-64
2022/03/19 03:34:46;;;;;;;55.72;29.58;;;;;;;0.18;89.16;99459.31;5028647;28;20093;-63
2022/03/19 03:37:13;;;;;;;63.83;30.80;;;;;;;0.28;89.90;99462.00;5027139;28;20040;-64
2022/03/19 03:39:40;;;;;;;63.30;31.35;;;;;;;0.40;89.45;99452.94;5028366;28;20046;-65
2022/03/19 03:42:06;;;;;;;59.70;30.13;;;;;;;0.45;89.25;99456.06;5032779;28;20113;-65
2022/03/19 03:44:33;;;;;;;61.42;29.90;;;;;;;0.48;88.33;99454.94;5027893;28;20052;-65
2022/03/19 03:47:01;;;;;;;53.13;28.98;;;;;;;0.41;87.91;99451.13;5026710;28;20045;-65
2022/03/19 03:49:28;;;;;;;60.08;30.65;;;;;;;0.12;87.79;99453.53;5026769;28;20041;-66
2022/03/19 03:51:55;;;;;;;56.15;29.85;;;;;;;-0.16;88.22;99453.25;5026669;28;20050;-65
2022/03/19 03:54:22;;;;;;;55.50;29.92;;;;;;;-0.35;89.02;99448.66;5026649;28;20057;-64
2022/03/19 03:56:48;;;;;;;60.25;28.52;;;;;;;-0.55;89.87;99450.34;5026143;28;20425;-64
2022/03/19 03:59:15;;;;;;;71.60;35.13;;;;;;;-0.71;92.07;99446.28;5027228;28;20045;-63
2022/03/19 04:01:41;;;;;;;70.45;32.95;;;;;;;-0.53;92.57;99453.69;5026627;28;20517;-64
2022/03/19 04:04:08;;;;;;;64.90;33.30;;;;;;;-0.69;91.24;99449.66;5029657;28;20045;-64
2022/03/19 04:06:35;;;;;;;60.67;29.75;;;;;;;-0.72;91.04;99449.91;5027741;28;20045;-65
2022/03/19 04:09:01;;;;;;;68.90;30.95;;;;;;;-0.50;92.44;99452.59;5026750;28;20045;-66
2022/03/19 04:11:28;;;;;;;63.80;30.77;;;;;;;-0.79;90.70;99456.72;5026973;28;20095;-65
2022/03/19 04:13:56;;;;;;;64.32;30.00;;;;;;;-0.81;91.50;99454.16;5027176;28;20045;-64
2022/03/19 04:16:22;;;;;;;66.60;32.33;;;;;;;-0.84;91.09;99450.94;5041103;28;20044;-64
2022/03/19 04:18:49;;;;;;;58.97;28.63;;;;;;;-0.84;91.15;99445.63;5041109;28;20541;-64
2022/03/19 04:21:15;;;;;;;64.85;32.67;;;;;;;-1.01;90.81;99442.53;5026634;28;20124;-64
2022/03/19 04:23:42;;;;;;;63.10;31.58;;;;;;;-0.94;91.82;99454.34;5026094;28;20464;-63
2022/03/19 04:26:09;;;;;;;53.33;29.63;;;;;;;-0.96;91.75;99447.47;5022209;28;20595;-64
2022/03/19 04:28:35;;;;;;;61.35;31.02;;;;;;;-0.87;93.39;99441.41;5025808;28;20087;-65
2022/03/19 04:31:02;;;;;;;59.97;28.48;;;;;;;-0.81;91.53;99448.03;5026563;28;20111;-63
2022/03/19 04:33:29;;;;;;;58.28;30.30;;;;;;;-0.94;91.03;99441.06;5026657;28;20128;-65
2022/03/19 04:38:41;;;;;;;65.38;32.63;;;;;;;-0.60;91.82;99450.69;5025902;28;20060;-64
2022/03/19 04:41:08;;;;;;;67.50;31.95;;;;;;;-0.52;89.99;99450.06;5026696;28;20617;-65
2022/03/19 04:43:35;;;;;;;59.03;29.52;;;;;;;-0.58;88.89;99450.56;5042726;28;20039;-65
2022/03/19 04:46:01;;;;;;;60.33;29.08;;;;;;;-0.57;90.02;99447.78;5016006;28;20595;-64
2022/03/19 04:48:30;;;;;;;68.90;32.03;;;;;;;-0.29;89.93;99448.09;5017877;28;20097;-66
2022/03/19 04:50:57;;;;;;;57.90;30.45;;;;;;;-0.32;88.45;99443.06;5026980;28;20823;-65
2022/03/19 04:53:24;;;;;;;60.83;31.73;;;;;;;-0.38;88.90;99438.25;5033715;28;20042;-65
2022/03/19 04:55:51;;;;;;;71.47;36.05;;;;;;;-0.32;89.94;99445.72;5026644;28;20041;-64
2022/03/19 04:58:17;;;;;;;66.95;34.58;;;;;;;-0.31;88.99;99447.41;5025571;28;20041;-64
2022/03/19 05:00:44;;;;;;;64.63;33.83;;;;;;;-0.37;89.23;99439.94;5025830;28;20525;-64
2022/03/19 05:03:13;;;;;;;61.05;31.40;;;;;;;-0.40;89.26;99437.53;5021741;28;20033;-64
2022/03/19 05:05:40;;;;;;;58.85;28.55;;;;;;;-0.53;88.56;99441.25;5024592;28;20073;-64
2022/03/19 05:08:07;;;;;;;57.20;29.17;;;;;;;-0.51;89.39;99440.25;5025937;28;20113;-64
2022/03/19 05:13:18;;;;;;;65.88;31.77;;;;;;;-0.37;89.16;99436.44;5026343;28;20050;-64
2022/03/19 05:15:45;;;;;;;57.17;28.45;;;;;;;-0.51;88.52;99430.47;5028077;28;20099;-63
2022/03/19 05:18:12;;;;;;;56.13;29.98;;;;;;;-0.66;88.28;99427.28;5026290;28;20045;-65
2022/03/19 05:20:38;;;;;;;50.90;28.48;;;;;;;-0.90;88.73;99430.13;5025651;28;20057;-64
2022/03/19 05:23:06;;;;;;;55.42;29.50;;;;;;;-0.97;89.35;99424.50;5025338;28;20049;-65
2022/03/19 05:25:33;;;;;;;54.78;27.98;;;;;;;-1.14;88.66;99433.88;5023960;28;20497;-65
2022/03/19 05:28:00;;;;;;;55.67;27.25;;;;;;;-1.20;89.09;99435.22;5023054;28;20041;-64
2022/03/19 05:30:47;;;;;;;57.97;26.48;;;;;;;-1.25;90.39;99426.78;5025320;28;20583;-64
2022/03/19 05:33:15;;;;;;;55.83;27.15;;;;;;;-1.06;90.52;99426.09;5017805;28;20402;-67
2022/03/19 05:35:42;;;;;;;53.70;27.63;;;;;;;-1.34;89.00;99420.38;5021923;28;20053;-66
2022/03/19 05:38:09;;;;;;;54.72;27.60;;;;;;;-1.42;90.41;99417.50;5022336;28;20175;-66
2022/03/19 05:40:36;;;;;;;55.60;28.92;;;;;;;-1.46;90.48;99414.25;5023016;28;20123;-66
2022/03/19 05:43:02;;;;;;;62.50;30.70;;;;;;;-1.55;90.45;99422.97;5022077;28;20045;-65
2022/03/19 05:45:29;;;;;;;55.22;28.50;;;;;;;-1.65;90.71;99418.38;5020542;28;20048;-65
2022/03/19 05:47:55;;;;;;;62.60;30.88;;;;;;;-1.84;91.48;99419.00;5016256;28;20045;-66
2022/03/19 05:50:22;;;;;;;65.03;31.50;;;;;;;-1.81;92.74;99423.22;5022530;28;20472;-65
2022/03/19 05:52:48;;;;;;;65.32;30.50;;;;;;;-1.73;92.92;99421.63;5035553;28;20064;-65
2022/03/19 05:55:15;;;;;;;60.47;29.73;;;;;;;-1.65;92.70;99414.88;5021949;28;20037;-65
2022/03/19 05:57:42;;;;;;;70.53;30.58;;;;;;;-1.67;91.54;99424.78;5022271;28;20041;-65
2022/03/19 06:00:10;;;;;;;65.82;31.08;;;;;;;-1.60;92.92;99424.16;5021608;28;20052;-65
2022/03/19 06:02:41;;;;;;;67.65;32.10;;;;;;;-1.56;91.69;99416.78;5022237;28;20068;-65
2022/03/19 06:05:08;;;;;;;67.70;30.00;;;;;;;-1.55;91.94;99423.78;5022289;28;20053;-65
2022/03/19 06:07:35;;;;;;;62.40;30.77;;;;;;;-1.32;91.59;99421.09;5021052;28;20418;-65
2022/03/19 06:10:04;;;;;;;61.50;30.73;;;;;;;-1.23;91.51;99423.00;5022638;28;20049;-66
2022/03/19 06:12:31;;;;;;;56.85;28.00;;;;;;;-1.18;90.91;99420.81;5026485;28;20118;-66
2022/03/19 06:14:57;;;;;;;65.25;32.75;;;;;;;-0.99;91.14;99418.47;5019615;28;20048;-64
2022/03/19 06:17:24;;;;;;;66.03;31.38;;;;;;;-0.58;90.15;99423.97;5021527;28;20041;-65
2022/03/19 06:19:51;;;;;;;61.28;31.48;;;;;;;-0.48;89.41;99424.03;5023365;28;20049;-64
2022/03/19 06:22:18;;;;;;;56.10;29.35;;;;;;;-0.55;87.92;99426.38;5023817;28;20042;-65
2022/03/19 06:24:44;;;;;;;61.80;30.60;;;;;;;-0.45;88.46;99424.63;5025238;28;20049;-64
2022/03/19 06:27:11;;;;;;;64.22;32.28;;;;;;;-0.41;88.84;99426.03;5022699;28;20052;-65
2022/03/19 06:29:38;;;;;;;59.33;30.67;;;;;;;-0.31;88.71;99433.25;5022348;28;20402;-64
2022/03/19 06:32:05;;;;;;;64.50;30.80;;;;;;;-0.16;88.45;99425.75;5017285;28;20679;-65
2022/03/19 06:34:32;;;;;;;57.30;30.48;;;;;;;0.17;87.08;99426.50;5019547;28;20042;-66
2022/03/19 06:39:44;;;;;;;51.38;27.63;;;;;;;0.17;87.15;99421.16;5019143;28;20045;-65
2022/03/19 06:42:10;;;;;;;59.75;31.13;;;;;;;0.40;87.44;99414.78;5020129;28;20045;-65
2022/03/19 06:44:38;;;;;;;60.25;31.13;;;;;;;0.50;86.68;99418.31;5020662;28;20066;-65
2022/03/19 06:47:06;;;;;;;61.45;32.22;;;;;;;0.67;87.11;99418.66;5017740;28;20802;-64
2022/03/19 06:49:33;;;;;;;61.70;30.50;;;;;;;0.73;86.97;99415.41;5023558;28;20065;-66
2022/03/19 06:51:59;;;;;;;67.57;31.88;;;;;;;0.99;86.96;99418.41;5022906;28;20319;-65
2022/03/19 06:54:26;;;;;;;62.63;33.55;;;;;;;1.19;85.74;99410.41;5026495;28;20053;-64
2022/03/19 06:56:54;;;;;;;61.03;30.88;;;;;;;1.35;85.04;99407.19;5024713;28;20052;-64
2022/03/19 06:59:20;;;;;;;60.20;32.22;;;;;;;1.67;83.63;99416.66;5027022;28;20041;-64
2022/03/19 07:01:47;;;;;;;58.15;30.08;;;;;;;1.88;82.34;99407.63;5026240;28;20048;-63
2022/03/19 07:04:15;;;;;;;55.53;31.13;;;;;;;2.03;81.75;99405.31;5029447;28;20057;-64
2022/03/19 07:06:42;;;;;;;55.10;29.55;;;;;;;2.16;81.49;99407.69;5027853;28;20045;-64
2022/03/19 07:09:26;;;;;;;52.17;27.25;;;;;;;2.29;80.74;99406.50;5028886;28;20042;-64
2022/03/19 07:11:53;;;;;;;58.47;30.73;;;;;;;2.39;80.22;99398.44;5017534;28;20042;-64
2022/03/19 07:14:20;;;;;;;51.08;30.58;;;;;;;2.52;79.70;99392.72;5019177;28;20049;-65
2022/03/19 07:16:47;;;;;;;57.22;29.95;;;;;;;2.59;79.52;99393.81;5030983;28;20041;-63
2022/03/19 07:19:14;;;;;;;52.60;27.95;;;;;;;2.72;79.18;99394.28;5028045;28;20052;-64
2022/03/19 07:21:41;;;;;;;45.55;25.75;;;;;;;2.84;77.99;99396.78;5027206;28;20087;-63
2022/03/19 07:24:07;;;;;;;49.67;28.80;;;;;;;2.94;77.84;99396.66;5028441;28;20049;-65
2022/03/19 07:26:34;;;;;;;52.72;27.88;;;;;;;3.02;77.19;99387.91;5027828;28;20083;-68
2022/03/19 07:29:01;;;;;;;51.72;29.75;;;;;;;3.14;76.64;99392.03;5027975;28;20045;-64
2022/03/19 07:31:28;;;;;;;50.30;25.95;;;;;;;3.24;76.07;99383.88;5027168;28;20056;-65
2022/03/19 07:33:54;;;;;;;53.63;27.85;;;;;;;3.37;75.94;99386.19;5028818;28;20046;-65
2022/03/19 07:36:21;;;;;;;51.17;26.88;;;;;;;3.47;75.11;99389.59;5026222;28;20057;-66
2022/03/19 07:38:48;;;;;;;51.65;27.10;;;;;;;3.51;74.87;99388.28;5027781;28;20045;-65
2022/03/19 07:44:00;;;;;;;51.50;27.75;;;;;;;3.62;73.53;99373.81;5016554;28;20505;-65
2022/03/19 07:46:27;;;;;;;48.22;26.33;;;;;;;3.72;73.73;99372.88;5028214;28;20045;-65
2022/03/19 07:48:55;;;;;;;49.22;26.65;;;;;;;3.86;73.26;99379.47;5026367;28;20064;-65
2022/03/19 07:51:21;;;;;;;46.55;27.63;;;;;;;3.92;72.14;99384.22;5025951;28;20037;-66
2022/03/19 07:53:48;;;;;;;44.97;25.77;;;;;;;4.03;71.37;99377.75;5025632;28;20500;-65
2022/03/19 07:56:14;;;;;;;46.03;24.30;;;;;;;4.10;71.27;99383.31;5023449;28;20037;-65
2022/03/19 07:58:41;;;;;;;52.13;24.80;;;;;;;4.39;69.79;99374.84;5016411;28;20045;-52
2022/03/19 08:01:08;;;;;;;44.92;23.75;;;;;;;4.65;69.60;99376.63;5019201;28;20049;-57
2022/03/19 08:03:35;;;;;;;43.95;26.35;;;;;;;4.75;70.19;99379.16;5022652;28;20056;-55
2022/03/19 08:06:03;;;;;;;44.63;24.17;;;;;;;4.86;67.86;99380.69;5018754;28;20128;-56
2022/03/19 08:08:30;;;;;;;42.20;23.90;;;;;;;5.01;67.87;99377.38;5020531;28;20069;-55
2022/03/19 08:10:57;;;;;;;44.58;25.90;;;;;;;4.92;68.31;99379.19;5020389;28;20183;-54
2022/03/19 08:13:23;;;;;;;45.05;25.35;;;;;;;4.93;66.48;99380.88;5019706;28;20056;-68
2022/03/19 08:15:50;;;;;;;46.30;23.98;;;;;;;4.97;66.15;99384.09;5020111;28;20060;-65
2022/03/19 08:18:17;;;;;;;40.40;24.45;;;;;;;4.83;64.99;99386.38;5013105;28;20045;-66
2022/03/19 08:20:45;;;;;;;41.55;25.25;;;;;;;4.79;65.73;99375.16;5023130;28;20060;-66
2022/03/19 08:23:19;;;;;;;36.22;21.23;;;;;;;4.95;64.77;99382.38;5002004;28;20053;-63
2022/03/19 08:25:46;;;;;;;45.10;24.63;;;;;;;4.94;64.56;99379.88;5021401;28;20052;-64
2022/03/19 08:28:13;;;;;;;42.80;24.13;;;;;;;5.00;63.51;99383.72;5022501;28;20045;-62
2022/03/19 08:30:40;;;;;;;37.53;21.50;;;;;;;5.18;63.81;99372.84;5022192;28;20052;-64
2022/03/19 08:33:07;;;;;;;41.55;24.10;;;;;;;5.26;63.53;99372.00;5017967;28;20042;-62
2022/03/19 08:35:34;;;;;;;37.20;23.35;;;;;;;5.21;62.43;99359.09;5020908;28;20168;-61
2022/03/19 08:40:46;;;;;;;39.13;21.65;;;;;;;5.38;61.76;99354.53;5027519;28;20063;-63
2022/03/19 08:43:12;;;;;;;41.40;23.15;;;;;;;5.52;61.71;99344.94;5030486;28;20405;-61
2022/03/19 08:45:39;;;;;;;38.38;22.70;;;;;;;5.49;60.35;99345.28;5039990;28;20037;-61
2022/03/19 08:48:06;;;;;;;35.47;21.63;;;;;;;5.56;60.47;99346.28;5035373;28;20555;-62
2022/03/19 08:50:32;;;;;;;41.25;21.92;;;;;;;5.70;59.06;99350.13;4987029;28;1095079;-65
2022/03/19 08:52:59;;;;;;;30.88;18.98;;;;;;;5.72;58.42;99340.03;5034662;28;20052;-61
2022/03/19 08:55:25;;;;;;;36.60;21.42;;;;;;;5.72;58.17;99341.91;5024093;28;20049;-62
2022/03/19 08:57:52;;;;;;;31.77;20.08;;;;;;;5.82;58.07;99344.41;5023738;28;20053;-64
2022/03/19 09:00:19;;;;;;;30.98;18.33;;;;;;;5.73;57.77;99332.81;5031612;28;20061;-63
2022/03/19 09:02:45;;;;;;;36.13;19.70;;;;;;;5.90;57.63;99327.41;5023785;28;20056;-63
2022/03/19 09:05:12;;;;;;;36.13;20.85;;;;;;;6.08;57.73;99330.72;5027584;28;20575;-63
2022/03/19 09:07:39;;;;;;;30.25;18.27;;;;;;;6.18;57.20;99330.50;5019649;28;20414;-64
2022/03/19 09:10:06;;;;;;;32.25;19.27;;;;;;;6.21;56.85;99329.31;5022833;28;20041;-63
2022/03/19 09:12:37;;;;;;;38.05;21.50;;;;;;;6.29;57.15;99323.91;5031212;28;20575;-64
2022/03/19 09:15:06;;;;;;;37.25;20.02;;;;;;;6.37;56.75;99320.31;5038069;28;20530;-62
2022/03/19 09:17:32;;;;;;;34.97;21.00;;;;;;;6.36;55.75;99319.50;5029082;28;20120;-64
2022/03/19 09:19:59;;;;;;;30.27;19.13;;;;;;;6.38;55.22;99311.25;5043702;28;20041;-64
2022/03/19 09:22:26;;;;;;;33.33;18.85;;;;;;;6.35;54.54;99312.44;5033112;28;20041;-63
2022/03/19 09:24:52;;;;;;;32.38;20.60;;;;;;;6.43;54.19;99308.03;5027573;28;20068;-62
2022/03/19 09:27:19;;;;;;;36.38;23.05;;;;;;;6.49;54.71;99307.34;5032208;28;20152;-64
2022/03/19 09:29:46;;;;;;;37.08;21.80;;;;;;;6.61;55.08;99310.44;5023018;28;20041;-64
2022/03/19 09:32:12;;;;;;;33.83;21.33;;;;;;;6.46;55.18;99313.06;5024139;28;20068;-63
2022/03/19 09:34:40;;;;;;;33.25;21.95;;;;;;;6.58;54.80;99303.56;5023091;28;20054;-64
2022/03/19 09:37:07;;;;;;;32.10;19.55;;;;;;;6.78;54.32;99300.38;5022235;28;20048;-63
2022/03/19 09:39:34;;;;;;;33.17;19.80;;;;;;;6.68;54.24;99291.72;5023213;28;20662;-63
2022/03/19 09:42:02;;;;;;;35.17;20.73;;;;;;;6.82;54.52;99299.00;5021083;28;20053;-64
2022/03/19 09:44:30;;;;;;;36.70;21.60;;;;;;;6.85;53.67;99279.81;5023561;28;20424;-63
2022/03/19 09:46:57;;;;;;;36.95;19.90;;;;;;;6.79;54.42;99283.25;5022629;28;20482;-63
2022/03/19 09:49:24;;;;;;;33.92;19.65;;;;;;;6.98;53.79;99272.97;5022062;28;20404;-63
2022/03/19 09:51:53;;;;;;;34.17;20.33;;;;;;;7.09;54.28;99275.25;5027298;28;20056;-63
2022/03/19 09:54:22;;;;;;;34.60;20.65;;;;;;;7.34;53.83;99264.22;5022430;28;20575;-63
2022/03/19 09:56:49;;;;;;;32.72;20.15;;;;;;;7.32;53.73;99258.19;5029181;28;20045;-62
2022/03/19 09:59:16;;;;;;;34.53;20.38;;;;;;;7.45;54.01;99249.47;5031291;28;20501;-63
2022/03/19 10:01:44;;;;;;;37.75;22.27;;;;;;;7.35;54.74;99249.75;5021695;28;20053;-62
2022/03/19 10:04:12;;;;;;;36.22;21.85;;;;;;;7.28;54.89;99244.25;5023131;28;20057;-63
2022/03/19 10:09:45;;;;;;;33.17;22.23;;;;;;;7.28;56.10;99241.56;5020290;28;20041;-63
2022/03/19 10:12:22;;;;;;;35.40;21.40;;;;;;;7.41;55.35;99237.41;5022649;28;20077;-63
2022/03/19 10:14:51;;;;;;;40.05;24.75;;;;;;;7.51;54.54;99221.75;5035647;28;20107;-61
2022/03/19 10:17:25;;;;;;;35.00;21.50;;;;;;;7.51;54.11;99231.69;5033121;28;20053;-64
2022/03/19 10:19:52;;;;;;;39.72;23.20;;;;;;;7.47;54.41;99214.22;5016942;28;20099;-62
2022/03/19 10:22:28;;;;;;;39.17;24.67;;;;;;;7.55;54.60;99214.13;5020237;28;20049;-61
2022/03/19 10:25:07;;;;;;;39.60;23.55;;;;;;;7.60;54.30;99209.03;5026648;28;20068;-63
2022/03/19 10:27:36;;;;;;;37.05;22.65;;;;;;;7.84;54.51;99211.59;5026826;28;20051;-61
2022/03/19 10:30:06;;;;;;;38.40;24.15;;;;;;;8.00;54.11;99207.84;5020949;28;20263;-62
2022/03/19 10:32:33;;;;;;;35.45;22.10;;;;;;;8.14;53.67;99204.28;5014636;28;20538;-61
2022/03/19 10:35:01;;;;;;;39.60;24.35;;;;;;;8.16;53.08;99193.28;5009648;28;20049;-63
2022/03/19 10:37:41;;;;;;;31.90;19.92;;;;;;;8.09;51.62;99195.91;5023998;28;20045;-62
2022/03/19 10:40:09;;;;;;;40.08;22.60;;;;;;;8.13;52.23;99191.81;5024198;28;20037;-60
2022/03/19 10:42:40;;;;;;;37.08;24.48;;;;;;;7.92;51.84;99196.16;5025625;28;20045;-60
2022/03/19 10:45:09;;;;;;;34.75;22.75;;;;;;;7.90;52.41;99187.41;5023699;28;20049;-61
2022/03/19 10:47:47;;;;;;;39.35;23.27;;;;;;;8.03;51.75;99183.19;5024344;28;20049;-61
2022/03/19 10:50:22;;;;;;;38.67;21.98;;;;;;;8.01;51.70;99179.84;5031781;28;20041;-63
2022/03/19 10:52:51;;;;;;;38.20;22.08;;;;;;;8.21;51.38;99171.97;5021854;28;20046;-62
2022/03/19 10:55:19;;;;;;;36.75;20.60;;;;;;;8.46;51.85;99177.81;5022321;28;20105;-62
2022/03/19 10:57:46;;;;;;;39.30;24.30;;;;;;;8.40;51.38;99183.97;5017244;28;20092;-61
2022/03/19 11:00:14;;;;;;;36.13;22.60;;;;;;;8.32;51.77;99179.56;5020137;28;20045;-62
2022/03/19 11:02:46;;;;;;;37.70;20.60;;;;;;;8.77;51.63;99167.72;5021642;28;20807;-69
2022/03/19 11:05:18;;;;;;;34.83;21.60;;;;;;;8.79;51.09;99162.13;5020807;28;20048;-62
2022/03/19 11:07:46;;;;;;;34.95;20.50;;;;;;;8.73;50.92;99138.59;5021415;28;20042;-64
2022/03/19 11:10:13;;;;;;;33.30;19.65;;;;;;;8.84;50.81;99136.19;5021014;28;20639;-63
2022/03/19 11:12:50;;;;;;;38.58;23.95;;;;;;;8.85;51.47;99137.03;5031602;28;20049;-63
2022/03/19 11:15:19;;;;;;;38.55;22.27;;;;;;;9.06;49.88;99130.72;5023496;28;20120;-63
2022/03/19 11:17:48;;;;;;;34.28;20.77;;;;;;;9.14;49.91;99116.19;5032127;28;20053;-64
2022/03/19 11:20:15;;;;;;;28.90;18.60;;;;;;;9.37;48.93;99110.50;5034712;28;20045;-64
2022/03/19 11:22:48;;;;;;;28.42;18.17;;;;;;;9.40;46.92;99108.44;5021318;28;20045;-61
2022/03/19 11:25:22;;;;;;;22.70;13.55;;;;;;;9.49;43.72;99116.19;5023415;28;20052;-62
2022/03/19 11:27:52;;;;;;;23.02;13.15;;;;;;;9.49;44.44;99116.19;5018946;28;20045;-60
2022/03/19 11:30:23;;;;;;;23.48;13.38;;;;;;;9.44;44.35;99112.41;5025755;28;20099;-60
2022/03/19 11:33:18;;;;;;;21.33;11.82;;;;;;;9.05;43.25;99098.50;5019360;28;20571;-61
2022/03/19 11:36:09;;;;;;;21.10;12.65;;;;;;;9.23;45.04;99097.97;5021782;28;20043;-63
2022/03/19 11:38:41;;;;;;;21.88;13.35;;;;;;;9.15;44.93;99079.22;5020076;28;20555;-62
2022/03/19 11:41:23;;;;;;;21.88;12.60;;;;;;;9.50;44.95;99085.41;5020549;28;20053;-63
2022/03/19 11:43:50;;;;;;;22.92;14.27;;;;;;;9.67;44.37;99067.97;5030153;28;20052;-61
2022/03/19 11:46:17;;;;;;;16.10;9.88;;;;;;;9.63;43.12;99070.25;5040490;28;20042;-64